Terminal Aerodrome Forecast
Issued by NWS Albany, NY

Home | Current Version | Previous Version | Text Only | Print | Product List | Glossary On
Versions: 1 2 3 4 5 6 7 8 9 10 11 12 13
480
FTUS41 KALY 171121
TAFALB
TAF
KALB 171121Z 1712/1812 VRB03KT P6SM BKN100 OVC150
     FM171600 12005KT P6SM VCSH BKN050 OVC080
      TEMPO 1718/1721 4SM -FZRAPLSN BKN025 OVC050
     FM172100 13006KT 3SM -FZRAPLSN BR OVC020
     FM180000 13006KT 3SM -RAPL BR OVC010=

USA.gov is the U.S. government's official web portal to all federal, state and local government web resources and services.